Overview Statistics Trail Chart Weather Telemetry Raw packets
 

This is the latest recevied weather packets stored in our database for station/object PY2WOA-13. If no packets are shown the sender has not sent any weather packets the latest 10 day(s).

<< 11 12 13 14 15 16 17 >>
Time Temp. Humidity Pressure Rain* Wind** Luminosity Snow
1788104104 38.33° C 35% 1008.6 hPa - - - -
1788102304 36.67° C 38% 1009.4 hPa - - - -
1788100504 35.56° C 42% 1010.2 hPa - - - -
1788098704 34.44° C 43% 1010.9 hPa - - - -
1788096904 32.78° C 52% 1011.6 hPa - - - -
1788095104 31.67° C 56% 1011.7 hPa - - - -
1788093303 31.11° C 58% 1011.8 hPa - - - -
1788091504 28.89° C 67% 1012.2 hPa - - - -
1788089704 27.78° C 68% 1012 hPa - - - -
1788087915 26.11° C 74% 1011.8 hPa - - - -
1788086104 25° C 79% 1011.8 hPa - - - -
1788084304 23.89° C 84% 1011.6 hPa - - - -
1788082504 23.89° C 85% 1011.4 hPa - - - -
1788080703 23.89° C 85% 1010.8 hPa - - - -
1788078903 23.89° C 83% 1010.6 hPa - - - -
1788077104 23.89° C 82% 1010.4 hPa - - - -
1788075304 24.44° C 82% 1010.1 hPa - - - -
1788073504 25° C 79% 1010 hPa - - - -
1788071704 25° C 77% 1010 hPa - - - -
1788069904 25° C 79% 1010.2 hPa - - - -
1788068104 24.44° C 79% 1010.2 hPa - - - -
1788066304 25° C 79% 1010.2 hPa - - - -
1788064504 24.44° C 82% 1010.4 hPa - - - -
1788062704 25° C 76% 1010.5 hPa - - - -
1788060904 25.56° C 75% 1010.4 hPa - - - -

* Rain since midnight (hover to see other rain measurements)
** Current wind speed in m/s (hover to see current wind gust speed)